Time;durP1;ratioP1;P1;durP2;ratioP2;P2;SDS_P1;SDS_P2;PMS_P1;PMS_P2;Temp;Humidity;BMP_temperature;BMP_pressure;BME280_temperature;BME280_humidity;BME280_pressure;Samples;Min_cycle;Max_cycle;Signal;HPM_P1;HPM_P2
2022/10/18 00:01:21;;;;;;;0.00;0.00;;;13.60;99.90;;;;;;5044851;28;20181;-75
2022/10/18 00:03:47;;;;;;;0.00;0.00;;;13.60;99.90;;;;;;5043552;28;20095;-75
2022/10/18 00:06:13;;;;;;;0.35;0.35;;;13.60;99.90;;;;;;5033696;28;20017;-75
2022/10/18 00:08:40;;;;;;;0.00;0.00;;;13.60;99.90;;;;;;5047261;28;20071;-74
2022/10/18 00:11:06;;;;;;;0.00;0.00;;;13.60;99.90;;;;;;5037775;28;20024;-75
2022/10/18 00:13:32;;;;;;;0.00;0.00;;;13.60;99.90;;;;;;5056402;28;20096;-74
2022/10/18 00:16:02;;;;;;;0.40;0.17;;;13.50;99.90;;;;;;5038999;28;20055;-75
2022/10/18 00:18:28;;;;;;;0.00;0.00;;;13.50;99.90;;;;;;5039113;28;20094;-74
2022/10/18 00:21:05;;;;;;;0.10;0.10;;;13.50;99.90;;;;;;5044060;28;20020;-74
2022/10/18 00:23:32;;;;;;;;;;;13.50;99.90;;;;;;5041597;28;20025;-75
2022/10/18 00:25:59;;;;;;;0.00;0.00;;;13.50;99.90;;;;;;5041476;28;19912;-75
2022/10/18 00:28:27;;;;;;;0.00;0.00;;;13.50;99.90;;;;;;5037779;28;20036;-74
2022/10/18 00:30:57;;;;;;;0.10;0.10;;;13.50;99.90;;;;;;5044395;28;20530;-75
2022/10/18 00:33:23;;;;;;;0.00;0.00;;;13.40;99.90;;;;;;5057285;28;20051;-75
2022/10/18 00:35:51;;;;;;;0.00;0.00;;;13.40;99.90;;;;;;5041971;28;20100;-75
2022/10/18 00:38:17;;;;;;;2.63;0.30;;;13.30;99.90;;;;;;5041308;28;20062;-74
2022/10/18 00:40:43;;;;;;;;;;;13.30;99.90;;;;;;5037883;28;20110;-75
2022/10/18 00:43:14;;;;;;;0.88;0.32;;;13.30;99.90;;;;;;5056180;28;19940;-74
2022/10/18 00:45:40;;;;;;;0.00;0.00;;;13.30;99.90;;;;;;5047348;28;20612;-75
2022/10/18 00:48:06;;;;;;;0.00;0.00;;;13.30;99.90;;;;;;5039234;28;20029;-74
2022/10/18 00:50:33;;;;;;;0.00;0.00;;;13.20;99.90;;;;;;5040912;28;20025;-75
2022/10/18 00:53:03;;;;;;;0.10;0.10;;;13.20;99.90;;;;;;5045083;28;20741;-74
2022/10/18 00:55:31;;;;;;;0.00;0.00;;;13.20;99.90;;;;;;5043951;28;20052;-75
2022/10/18 00:57:58;;;;;;;0.03;0.03;;;13.20;99.90;;;;;;5042375;28;20086;-75
2022/10/18 01:00:24;;;;;;;0.00;0.00;;;13.20;99.90;;;;;;5036251;28;20053;-75
2022/10/18 01:02:51;;;;;;;0.80;0.10;;;13.20;99.90;;;;;;5061883;28;20036;-75
2022/10/18 01:05:18;;;;;;;0.00;0.00;;;13.20;99.90;;;;;;5042254;28;20025;-75
2022/10/18 01:07:57;;;;;;;0.10;0.10;;;13.20;99.90;;;;;;5056770;28;20044;-74
2022/10/18 01:10:37;;;;;;;0.00;0.00;;;13.20;99.90;;;;;;5043097;28;20032;-75
2022/10/18 01:13:24;;;;;;;0.10;0.10;;;13.20;99.90;;;;;;5035162;28;20108;-75
2022/10/18 01:15:58;;;;;;;0.00;0.00;;;13.20;99.90;;;;;;5040609;28;20036;-74
2022/10/18 01:18:43;;;;;;;0.32;0.32;;;13.20;99.90;;;;;;5041334;28;20025;-75
2022/10/18 01:21:44;;;;;;;0.00;0.00;;;13.10;99.90;;;;;;5039146;28;20020;-74
2022/10/18 01:24:12;;;;;;;0.10;0.10;;;13.10;99.90;;;;;;5003418;28;20036;-74
2022/10/18 01:26:50;;;;;;;0.00;0.00;;;13.10;99.90;;;;;;5041984;28;20059;-74
2022/10/18 01:29:46;;;;;;;0.10;0.10;;;13.20;99.90;;;;;;5037240;28;20025;-75
2022/10/18 01:32:18;;;;;;;0.30;0.10;;;13.10;99.90;;;;;;5023903;28;20048;-74
2022/10/18 01:34:46;;;;;;;0.00;0.00;;;13.00;99.90;;;;;;5043231;28;20020;-74
2022/10/18 01:37:16;;;;;;;0.00;0.00;;;12.90;99.90;;;;;;5041893;28;20420;-74
2022/10/18 01:39:46;;;;;;;0.00;0.00;;;12.90;99.90;;;;;;5048047;28;20040;-75
2022/10/18 01:42:15;;;;;;;0.43;0.43;;;12.90;99.90;;;;;;5040269;28;20013;-74
2022/10/18 01:44:43;;;;;;;0.00;0.00;;;12.80;99.90;;;;;;5041426;28;20013;-74
2022/10/18 01:47:12;;;;;;;0.00;0.00;;;12.70;99.90;;;;;;5036398;28;20079;-74
2022/10/18 01:49:41;;;;;;;0.00;0.00;;;12.70;99.90;;;;;;5063551;28;20021;-74
2022/10/18 01:52:17;;;;;;;0.00;0.00;;;12.70;99.90;;;;;;5035709;28;20029;-75
2022/10/18 01:54:47;;;;;;;0.35;0.35;;;12.70;99.90;;;;;;5046105;28;20079;-74
2022/10/18 01:57:33;;;;;;;0.00;0.00;;;12.70;99.90;;;;;;5043176;28;20031;-75
2022/10/18 02:00:15;;;;;;;0.00;0.00;;;12.70;99.90;;;;;;5046004;28;20032;-75
2022/10/18 02:02:48;;;;;;;0.00;0.00;;;12.60;99.90;;;;;;5049131;28;20029;-75
2022/10/18 02:05:23;;;;;;;0.00;0.00;;;12.50;99.90;;;;;;5040954;28;20114;-74
2022/10/18 02:08:10;;;;;;;0.00;0.00;;;12.50;99.90;;;;;;5045195;28;20055;-75
2022/10/18 02:10:39;;;;;;;0.25;0.25;;;12.50;99.90;;;;;;5041309;28;20108;-75
2022/10/18 02:13:06;;;;;;;0.00;0.00;;;12.50;99.90;;;;;;5042496;28;20017;-74
2022/10/18 02:15:40;;;;;;;0.00;0.00;;;12.50;99.90;;;;;;5041834;28;20371;-75
2022/10/18 02:18:11;;;;;;;0.10;0.10;;;12.50;99.90;;;;;;5035051;28;20672;-75
2022/10/18 02:20:38;;;;;;;0.17;0.17;;;12.50;99.90;;;;;;5047260;28;20020;-74
2022/10/18 02:23:07;;;;;;;0.00;0.00;;;12.50;99.90;;;;;;5042441;28;20016;-75
2022/10/18 02:25:37;;;;;;;0.00;0.00;;;12.40;99.90;;;;;;5061258;28;20104;-74
2022/10/18 02:28:04;;;;;;;0.00;0.00;;;12.40;99.90;;;;;;5035513;28;20017;-75
2022/10/18 02:31:07;;;;;;;;;;;12.50;99.90;;;;;;5041540;28;20029;-74
2022/10/18 02:33:41;;;;;;;0.70;0.30;;;12.40;99.90;;;;;;4986544;28;20259;-74
2022/10/18 02:36:17;;;;;;;0.00;0.00;;;12.40;99.90;;;;;;5034958;28;20044;-74
2022/10/18 02:38:45;;;;;;;0.07;0.07;;;12.40;99.90;;;;;;5040471;28;20602;-75
2022/10/18 02:41:11;;;;;;;0.05;0.05;;;12.40;99.90;;;;;;5040974;28;20593;-75
2022/10/18 02:43:37;;;;;;;0.10;0.10;;;12.40;99.90;;;;;;5035287;28;20025;-74
2022/10/18 02:46:05;;;;;;;0.00;0.00;;;12.40;99.90;;;;;;5043843;28;20135;-75
2022/10/18 02:48:31;;;;;;;0.00;0.00;;;12.40;99.90;;;;;;5044247;28;20040;-75
2022/10/18 02:50:56;;;;;;;0.53;0.53;;;12.40;99.90;;;;;;5044278;28;20028;-75
2022/10/18 02:53:22;;;;;;;0.00;0.00;;;12.30;99.90;;;;;;5047126;28;21397;-74
2022/10/18 02:55:48;;;;;;;0.00;0.00;;;12.40;99.90;;;;;;5044740;28;20029;-75
2022/10/18 02:58:15;;;;;;;0.00;0.00;;;12.30;99.90;;;;;;5036776;28;20040;-75
2022/10/18 03:00:42;;;;;;;0.00;0.00;;;12.30;99.90;;;;;;5043371;28;20016;-75
2022/10/18 03:03:08;;;;;;;;;;;12.30;99.90;;;;;;5043492;28;20017;-74
2022/10/18 03:05:34;;;;;;;0.05;0.03;;;12.30;99.90;;;;;;5050058;28;20050;-75
2022/10/18 03:08:03;;;;;;;0.03;0.03;;;12.30;99.90;;;;;;5061100;28;20103;-75
2022/10/18 03:10:30;;;;;;;0.00;0.00;;;12.30;99.90;;;;;;5043782;28;20025;-75
2022/10/18 03:12:56;;;;;;;;;;;12.30;99.90;;;;;;5042002;28;20074;-75
2022/10/18 03:15:22;;;;;;;0.08;0.08;;;12.30;99.90;;;;;;5038867;28;19912;-75
2022/10/18 03:17:48;;;;;;;0.00;0.00;;;12.30;99.90;;;;;;5043342;28;20558;-75
2022/10/18 03:20:14;;;;;;;;;;;12.20;99.90;;;;;;5039436;28;20021;-75
2022/10/18 03:22:40;;;;;;;0.00;0.00;;;12.20;99.90;;;;;;5057859;28;19905;-75
2022/10/18 03:25:06;;;;;;;0.00;0.00;;;12.20;99.90;;;;;;5035412;28;20021;-75
2022/10/18 03:27:36;;;;;;;0.00;0.00;;;12.10;99.90;;;;;;5043932;28;20482;-74
2022/10/18 03:30:04;;;;;;;0.00;0.00;;;12.10;99.90;;;;;;5036868;28;20650;-75
2022/10/18 03:32:30;;;;;;;0.00;0.00;;;12.10;99.90;;;;;;5043102;28;20104;-74
2022/10/18 03:34:57;;;;;;;0.00;0.00;;;12.10;99.90;;;;;;5047103;28;20104;-75
2022/10/18 03:37:23;;;;;;;0.10;0.10;;;12.10;99.90;;;;;;5040620;28;20036;-75
2022/10/18 03:39:51;;;;;;;0.00;0.00;;;12.10;99.90;;;;;;5038404;28;20778;-74
2022/10/18 03:42:18;;;;;;;0.00;0.00;;;12.00;99.90;;;;;;5037446;28;20013;-75
2022/10/18 03:44:43;;;;;;;;;;;12.00;99.90;;;;;;5043098;28;20028;-75
2022/10/18 03:47:11;;;;;;;0.00;0.00;;;12.00;99.90;;;;;;5058064;28;19954;-75
2022/10/18 03:49:38;;;;;;;0.00;0.00;;;12.00;99.90;;;;;;5044809;28;20020;-74
2022/10/18 03:52:04;;;;;;;0.00;0.00;;;12.00;99.90;;;;;;5042270;28;20078;-74
2022/10/18 03:54:31;;;;;;;0.10;0.10;;;12.00;99.90;;;;;;5051656;28;20016;-75
2022/10/18 03:56:56;;;;;;;0.00;0.00;;;11.90;99.90;;;;;;5058781;28;20053;-75
2022/10/18 03:59:23;;;;;;;0.13;0.13;;;11.90;99.90;;;;;;5041118;28;20059;-75
2022/10/18 04:01:49;;;;;;;;;;;11.90;99.90;;;;;;5058691;28;20568;-75
2022/10/18 04:04:16;;;;;;;0.00;0.00;;;11.80;99.90;;;;;;5059578;28;20326;-75
2022/10/18 04:06:43;;;;;;;0.00;0.00;;;11.80;99.90;;;;;;5033051;28;20500;-74
2022/10/18 04:09:09;;;;;;;;;;;11.80;99.90;;;;;;5044508;28;20525;-75
2022/10/18 04:11:38;;;;;;;0.00;0.00;;;11.80;99.90;;;;;;5052251;28;19904;-77
2022/10/18 04:14:03;;;;;;;0.00;0.00;;;11.80;99.90;;;;;;5158881;22;20069;-78
2022/10/18 04:16:32;;;;;;;0.03;0.03;;;11.80;99.90;;;;;;5037604;28;20055;-77
2022/10/18 04:18:59;;;;;;;0.00;0.00;;;11.70;99.90;;;;;;5039390;28;20020;-78
2022/10/18 04:21:25;;;;;;;;;;;11.80;99.90;;;;;;5026119;28;20131;-79
2022/10/18 04:23:57;;;;;;;0.00;0.00;;;11.70;99.90;;;;;;5041393;28;19939;-79
2022/10/18 04:26:25;;;;;;;0.00;0.00;;;11.60;99.90;;;;;;5042814;28;20102;-78
2022/10/18 04:28:51;;;;;;;0.00;0.00;;;11.60;99.90;;;;;;5035194;28;20858;-78
2022/10/18 04:31:23;;;;;;;;;;;11.70;99.90;;;;;;5027944;28;20021;-78
2022/10/18 04:33:52;;;;;;;0.10;0.10;;;11.60;99.90;;;;;;5040175;28;19915;-79
2022/10/18 04:36:18;;;;;;;0.00;0.00;;;11.60;99.90;;;;;;5043696;28;20028;-78
2022/10/18 04:38:44;;;;;;;0.10;0.10;;;11.70;99.90;;;;;;5042222;28;20029;-78
2022/10/18 04:41:11;;;;;;;0.00;0.00;;;11.70;99.90;;;;;;5037067;28;20020;-77
2022/10/18 04:43:36;;;;;;;;;;;11.70;99.90;;;;;;5039622;28;20013;-78
2022/10/18 04:46:03;;;;;;;0.03;0.03;;;11.70;99.90;;;;;;5035264;28;19970;-76
2022/10/18 04:48:31;;;;;;;;;;;11.70;99.90;;;;;;5021214;28;20033;-77
2022/10/18 04:50:57;;;;;;;0.00;0.00;;;11.70;99.90;;;;;;5040858;28;19909;-77
2022/10/18 04:53:24;;;;;;;;;;;11.70;99.90;;;;;;5037836;28;20331;-77
2022/10/18 04:55:50;;;;;;;0.05;0.05;;;11.70;99.90;;;;;;5044974;28;19923;-76
2022/10/18 04:58:18;;;;;;;0.00;0.00;;;11.70;99.90;;;;;;5028581;28;20017;-76
2022/10/18 05:00:44;;;;;;;0.00;0.00;;;11.70;99.90;;;;;;5032694;28;20021;-76
2022/10/18 05:03:12;;;;;;;0.10;0.08;;;11.60;99.90;;;;;;5042447;28;20056;-76
2022/10/18 05:05:38;;;;;;;0.00;0.00;;;11.60;99.90;;;;;;5041976;28;20035;-76
2022/10/18 05:08:09;;;;;;;0.00;0.00;;;11.60;99.90;;;;;;5042048;28;20538;-75
2022/10/18 05:10:35;;;;;;;0.43;0.17;;;11.60;99.90;;;;;;5033579;28;20259;-77
2022/10/18 05:13:01;;;;;;;0.00;0.00;;;11.70;99.90;;;;;;5038417;28;20078;-77
2022/10/18 05:15:28;;;;;;;0.00;0.00;;;11.60;99.90;;;;;;5036624;28;20049;-78
2022/10/18 05:17:56;;;;;;;0.00;0.00;;;11.60;99.90;;;;;;5024361;28;20101;-78
2022/10/18 05:20:22;;;;;;;0.00;0.00;;;11.60;99.90;;;;;;5040155;28;21444;-74
2022/10/18 05:22:47;;;;;;;0.20;0.20;;;11.50;99.90;;;;;;5034034;28;20074;-74
2022/10/18 05:25:13;;;;;;;0.57;0.43;;;11.50;99.90;;;;;;5037679;28;20032;-73
2022/10/18 05:27:41;;;;;;;0.00;0.00;;;11.60;99.90;;;;;;5033222;28;20043;-74
2022/10/18 05:30:07;;;;;;;0.00;0.00;;;11.60;99.90;;;;;;5044227;28;20033;-74
2022/10/18 05:32:32;;;;;;;0.00;0.00;;;11.60;99.90;;;;;;5043292;28;20373;-74
2022/10/18 05:34:58;;;;;;;0.00;0.00;;;11.70;99.90;;;;;;5040095;28;20032;-74
2022/10/18 05:37:25;;;;;;;0.00;0.00;;;11.70;99.90;;;;;;5019231;28;20477;-74
2022/10/18 05:39:50;;;;;;;0.45;0.45;;;11.80;99.90;;;;;;5039204;28;20113;-74
2022/10/18 05:42:16;;;;;;;0.00;0.00;;;11.90;99.90;;;;;;5037724;28;20681;-74
2022/10/18 05:44:42;;;;;;;0.00;0.00;;;11.90;99.90;;;;;;5038301;28;20021;-73
2022/10/18 05:47:09;;;;;;;0.00;0.00;;;12.10;99.90;;;;;;5036542;28;20488;-73
2022/10/18 05:49:35;;;;;;;0.00;0.00;;;12.40;99.90;;;;;;5026146;28;20594;-73
2022/10/18 05:52:01;;;;;;;0.00;0.00;;;12.90;99.90;;;;;;5035043;28;20103;-73
2022/10/18 05:54:27;;;;;;;0.00;0.00;;;13.60;99.90;;;;;;5037720;28;20025;-74
2022/10/18 05:56:53;;;;;;;0.00;0.00;;;14.10;99.90;;;;;;5033799;28;20029;-74
2022/10/18 05:59:19;;;;;;;0.00;0.00;;;14.30;99.90;;;;;;5036858;28;20040;-71
2022/10/18 06:01:44;;;;;;;0.13;0.13;;;14.80;99.90;;;;;;5038657;28;20013;-71
2022/10/18 06:04:10;;;;;;;0.00;0.00;;;15.40;99.90;;;;;;5040186;28;20071;-70
2022/10/18 06:06:37;;;;;;;0.10;0.10;;;15.90;99.90;;;;;;5021023;28;20024;-72
2022/10/18 06:09:05;;;;;;;1.02;0.10;;;16.50;99.90;;;;;;5025093;28;20387;-71
2022/10/18 06:11:31;;;;;;;0.30;0.00;;;17.10;99.90;;;;;;5040039;28;20021;-71
2022/10/18 06:13:58;;;;;;;0.10;0.10;;;17.50;99.90;;;;;;5036381;28;20072;-70
2022/10/18 06:16:26;;;;;;;0.00;0.00;;;18.00;99.90;;;;;;5036745;28;20025;-71
2022/10/18 06:18:56;;;;;;;0.30;0.20;;;18.10;99.90;;;;;;5044144;28;20717;-71
2022/10/18 06:21:24;;;;;;;0.35;0.10;;;18.70;99.90;;;;;;5031719;28;20664;-71
2022/10/18 06:23:52;;;;;;;1.38;0.32;;;19.10;99.90;;;;;;5038849;28;20099;-71
2022/10/18 06:26:18;;;;;;;0.08;0.08;;;19.20;99.90;;;;;;5042456;28;20021;-71
2022/10/18 06:28:45;;;;;;;0.08;0.08;;;19.20;99.90;;;;;;5038300;28;20246;-72
2022/10/18 06:31:13;;;;;;;0.10;0.10;;;19.20;99.90;;;;;;5021219;28;20029;-71
2022/10/18 06:33:39;;;;;;;0.10;0.10;;;19.00;99.90;;;;;;5042193;28;20036;-71
2022/10/18 06:36:11;;;;;;;0.00;0.00;;;19.00;99.90;;;;;;5042286;28;20036;-72
2022/10/18 06:38:36;;;;;;;0.00;0.00;;;19.30;99.90;;;;;;5026812;28;20480;-72
2022/10/18 06:41:03;;;;;;;0.20;0.20;;;19.20;99.30;;;;;;5036891;28;20489;-74
2022/10/18 06:43:29;;;;;;;0.10;0.10;;;19.10;99.50;;;;;;5043081;28;20032;-74
2022/10/18 06:45:55;;;;;;;0.00;0.00;;;19.50;98.80;;;;;;5019013;28;20033;-74
2022/10/18 06:48:22;;;;;;;1.35;0.30;;;19.90;98.70;;;;;;5039068;28;20090;-71
2022/10/18 06:50:58;;;;;;;0.10;0.10;;;20.30;97.60;;;;;;5016082;28;20366;-71
2022/10/18 06:53:25;;;;;;;0.00;0.00;;;20.70;96.80;;;;;;5041736;28;20412;-71
2022/10/18 06:55:51;;;;;;;0.05;0.05;;;21.30;96.40;;;;;;5036086;28;20162;-72
2022/10/18 06:58:17;;;;;;;0.15;0.15;;;20.70;95.80;;;;;;5039392;28;20124;-71
2022/10/18 07:00:45;;;;;;;0.10;0.10;;;21.20;96.10;;;;;;5036042;28;20108;-71
2022/10/18 07:03:11;;;;;;;0.45;0.45;;;20.70;95.60;;;;;;5040844;28;20067;-71
2022/10/18 07:05:37;;;;;;;0.28;0.28;;;19.90;95.10;;;;;;5038328;28;20013;-71
2022/10/18 07:08:02;;;;;;;0.00;0.00;;;20.00;95.90;;;;;;5037319;28;20028;-74
2022/10/18 07:10:29;;;;;;;0.10;0.10;;;20.50;95.50;;;;;;5019593;28;20716;-71
2022/10/18 07:12:55;;;;;;;0.00;0.00;;;20.20;95.40;;;;;;5038138;28;20029;-72
2022/10/18 07:15:22;;;;;;;0.10;0.00;;;20.90;94.90;;;;;;5034516;28;20112;-72
2022/10/18 07:17:49;;;;;;;0.45;0.43;;;21.50;94.30;;;;;;5044158;28;20025;-72
2022/10/18 07:20:15;;;;;;;0.10;0.10;;;21.70;93.20;;;;;;5033114;28;20021;-72
2022/10/18 07:22:42;;;;;;;;;;;21.20;92.90;;;;;;5021269;28;20075;-72
2022/10/18 07:25:08;;;;;;;0.00;0.00;;;21.90;92.70;;;;;;5041167;28;19909;-72
2022/10/18 07:27:41;;;;;;;0.30;0.20;;;22.90;91.00;;;;;;5039219;28;20036;-71
2022/10/18 07:30:09;;;;;;;0.10;0.00;;;22.30;90.50;;;;;;5035162;28;20052;-72
2022/10/18 07:32:36;;;;;;;1.08;0.70;;;22.70;90.40;;;;;;5040987;28;20025;-72
2022/10/18 07:35:02;;;;;;;0.00;0.00;;;22.40;90.30;;;;;;5034853;28;20109;-72
2022/10/18 07:37:28;;;;;;;;;;;21.30;91.10;;;;;;5040291;28;21139;-72
2022/10/18 07:39:55;;;;;;;0.20;0.15;;;21.10;92.20;;;;;;5032558;28;19913;-72
2022/10/18 07:42:20;;;;;;;0.28;0.28;;;21.80;91.40;;;;;;5019956;28;20138;-72
2022/10/18 07:44:46;;;;;;;0.43;0.30;;;22.50;91.00;;;;;;5016940;28;20023;-72
2022/10/18 07:47:13;;;;;;;0.20;0.20;;;23.20;88.70;;;;;;5022092;28;20025;-72
2022/10/18 07:49:39;;;;;;;0.03;0.03;;;22.60;88.80;;;;;;5042645;28;20021;-72
2022/10/18 07:52:05;;;;;;;0.50;0.40;;;23.00;87.00;;;;;;5039948;28;20027;-72
2022/10/18 07:54:31;;;;;;;0.00;0.00;;;23.70;86.40;;;;;;5034952;28;20850;-72
2022/10/18 07:56:57;;;;;;;0.10;0.05;;;24.00;84.50;;;;;;5038483;28;20032;-72
2022/10/18 07:59:23;;;;;;;0.10;0.00;;;22.70;85.30;;;;;;5037187;28;20380;-72
2022/10/18 08:01:49;;;;;;;0.35;0.13;;;22.60;86.60;;;;;;5042106;28;20025;-72
2022/10/18 08:04:15;;;;;;;;;;;23.90;84.70;;;;;;5042727;28;20025;-71
2022/10/18 08:06:41;;;;;;;0.00;0.00;;;24.80;82.30;;;;;;5042205;28;19905;-72
2022/10/18 08:09:07;;;;;;;0.30;0.30;;;24.30;80.50;;;;;;5045001;28;20035;-72
2022/10/18 08:11:32;;;;;;;0.43;0.43;;;23.90;82.30;;;;;;5038011;28;20048;-72
2022/10/18 08:13:58;;;;;;;0.00;0.00;;;24.60;80.80;;;;;;5044731;28;20126;-72
2022/10/18 08:16:30;;;;;;;0.03;0.03;;;25.00;79.50;;;;;;5023051;28;20021;-72
2022/10/18 08:18:57;;;;;;;2.30;0.28;;;26.20;77.30;;;;;;5024196;28;20048;-72
2022/10/18 08:21:24;;;;;;;0.22;0.22;;;26.70;75.50;;;;;;5033400;28;20036;-72
2022/10/18 08:23:52;;;;;;;0.20;0.15;;;26.40;73.50;;;;;;5020612;28;20025;-73
2022/10/18 08:26:21;;;;;;;0.15;0.15;;;26.60;73.40;;;;;;5024130;28;20025;-72
2022/10/18 08:28:48;;;;;;;0.15;0.05;;;26.10;73.10;;;;;;5042639;28;20037;-72
2022/10/18 08:31:18;;;;;;;0.00;0.00;;;26.60;73.10;;;;;;5039861;28;20031;-73
2022/10/18 08:33:46;;;;;;;0.63;0.35;;;27.10;71.90;;;;;;5039676;28;20131;-72
2022/10/18 08:36:15;;;;;;;0.00;0.00;;;27.50;69.40;;;;;;5023946;28;20021;-72
2022/10/18 08:38:43;;;;;;;0.05;0.05;;;27.60;69.20;;;;;;5043320;28;20017;-72
2022/10/18 08:41:37;;;;;;;0.00;0.00;;;26.30;70.20;;;;;;5044415;28;20484;-72
2022/10/18 08:44:26;;;;;;;0.30;0.30;;;27.20;70.70;;;;;;5035145;28;20374;-72
2022/10/18 08:47:06;;;;;;;0.00;0.00;;;28.40;67.30;;;;;;5037116;28;20019;-72
2022/10/18 08:49:43;;;;;;;0.05;0.05;;;27.30;67.60;;;;;;5041261;28;20024;-72
2022/10/18 08:52:29;;;;;;;0.13;0.13;;;26.40;68.90;;;;;;5039738;28;20108;-72
2022/10/18 08:55:01;;;;;;;0.20;0.20;;;25.90;68.50;;;;;;5020045;28;20021;-72
2022/10/18 08:57:27;;;;;;;0.32;0.32;;;27.40;68.90;;;;;;5037484;28;20013;-72
2022/10/18 08:59:54;;;;;;;0.10;0.10;;;28.80;66.00;;;;;;5019733;28;20044;-72
2022/10/18 09:02:52;;;;;;;0.00;0.00;;;29.10;65.80;;;;;;5040930;28;21444;-73
2022/10/18 09:05:23;;;;;;;0.00;0.00;;;30.60;63.50;;;;;;5038608;28;20104;-73
2022/10/18 09:07:59;;;;;;;0.10;0.10;;;31.20;60.50;;;;;;5029741;28;20033;-73
2022/10/18 09:10:50;;;;;;;0.08;0.08;;;32.10;59.20;;;;;;5021449;28;20762;-72
2022/10/18 09:13:49;;;;;;;0.10;0.10;;;30.60;58.90;;;;;;5039852;28;20087;-72
2022/10/18 09:16:40;;;;;;;0.00;0.00;;;29.30;60.60;;;;;;5042746;28;20029;-71
2022/10/18 09:19:36;;;;;;;0.45;0.45;;;30.20;60.30;;;;;;5037973;28;20028;-72
2022/10/18 09:22:45;;;;;;;0.00;0.00;;;30.60;59.80;;;;;;5040287;28;20017;-72
2022/10/18 09:25:43;;;;;;;0.10;0.10;;;29.90;59.60;;;;;;5026895;28;20102;-72
2022/10/18 09:28:23;;;;;;;0.00;0.00;;;31.60;57.50;;;;;;5000451;28;20029;-72
2022/10/18 09:31:04;;;;;;;0.20;0.20;;;30.80;58.30;;;;;;5033928;28;20028;-72
2022/10/18 09:34:01;;;;;;;0.10;0.10;;;29.50;60.00;;;;;;5019727;28;20381;-72
2022/10/18 09:36:35;;;;;;;0.00;0.00;;;30.40;59.00;;;;;;5018320;28;20051;-72
2022/10/18 09:39:18;;;;;;;0.00;0.00;;;31.60;57.90;;;;;;5037059;28;20055;-72
2022/10/18 09:42:17;;;;;;;0.00;0.00;;;30.20;57.90;;;;;;5040648;28;20017;-72
2022/10/18 09:45:00;;;;;;;0.38;0.38;;;29.80;59.90;;;;;;5014474;28;20474;-72
2022/10/18 09:48:00;;;;;;;0.63;0.10;;;30.40;59.20;;;;;;5022532;28;20028;-73
2022/10/18 09:50:28;;;;;;;0.00;0.00;;;31.40;57.70;;;;;;5037614;28;20105;-72
2022/10/18 09:53:10;;;;;;;0.00;0.00;;;31.70;57.60;;;;;;5040580;28;20460;-73
2022/10/18 09:55:56;;;;;;;0.20;0.10;;;30.80;56.60;;;;;;5024034;28;20031;-73
2022/10/18 09:58:27;;;;;;;0.15;0.15;;;32.00;56.60;;;;;;5043272;28;21696;-73
2022/10/18 10:00:54;;;;;;;0.30;0.30;;;33.10;55.10;;;;;;5046677;28;20098;-73
2022/10/18 10:03:20;;;;;;;0.15;0.15;;;33.40;53.90;;;;;;5042775;28;20047;-72
2022/10/18 10:05:45;;;;;;;0.25;0.20;;;30.60;55.50;;;;;;5041199;28;20457;-73
2022/10/18 10:08:11;;;;;;;0.08;0.08;;;30.20;56.20;;;;;;5044506;28;20118;-72
2022/10/18 10:10:46;;;;;;;0.13;0.13;;;29.60;57.30;;;;;;5032600;28;20452;-73
2022/10/18 10:13:23;;;;;;;0.00;0.00;;;30.00;57.90;;;;;;5037800;28;20560;-73
2022/10/18 10:16:02;;;;;;;0.20;0.20;;;31.10;57.10;;;;;;5043420;28;20025;-72
2022/10/18 10:18:33;;;;;;;0.05;0.05;;;30.30;56.70;;;;;;5046760;28;20017;-72
2022/10/18 10:21:04;;;;;;;0.00;0.00;;;30.50;56.90;;;;;;5043470;28;20058;-73
2022/10/18 10:23:43;;;;;;;0.13;0.13;;;30.90;56.50;;;;;;5044393;28;20055;-73
2022/10/18 10:26:31;;;;;;;0.20;0.20;;;32.20;56.10;;;;;;5034039;28;20033;-73
2022/10/18 10:28:57;;;;;;;0.00;0.00;;;33.90;53.80;;;;;;5036192;28;20036;-72
2022/10/18 10:31:27;;;;;;;0.20;0.20;;;32.40;53.70;;;;;;5042961;28;20040;-73
2022/10/18 10:34:12;;;;;;;0.20;0.20;;;32.60;53.20;;;;;;5036416;28;20033;-72
2022/10/18 10:36:50;;;;;;;0.32;0.32;;;29.10;56.20;;;;;;5041304;28;20021;-73
2022/10/18 10:39:18;;;;;;;0.20;0.20;;;30.90;56.50;;;;;;5037349;28;20072;-73
2022/10/18 10:41:53;;;;;;;0.00;0.00;;;29.90;57.00;;;;;;5022979;28;20028;-73
2022/10/18 10:44:30;;;;;;;0.00;0.00;;;30.00;56.60;;;;;;5041667;28;20099;-72
2022/10/18 10:46:56;;;;;;;0.20;0.20;;;29.40;57.90;;;;;;5038530;28;20619;-72
2022/10/18 10:49:41;;;;;;;0.45;0.45;;;26.10;60.60;;;;;;5040644;28;20036;-73
2022/10/18 10:52:20;;;;;;;0.38;0.10;;;25.30;64.00;;;;;;5037964;28;20108;-73
2022/10/18 10:54:46;;;;;;;0.03;0.03;;;24.50;65.30;;;;;;5039232;28;20028;-73
2022/10/18 10:57:11;;;;;;;;;;;23.90;66.90;;;;;;5044195;28;20021;-72
2022/10/18 10:59:49;;;;;;;0.00;0.00;;;22.80;69.20;;;;;;5036444;28;19949;-72
2022/10/18 11:02:20;;;;;;;0.10;0.10;;;22.30;70.40;;;;;;5042890;28;20025;-73
2022/10/18 11:04:50;;;;;;;1.30;0.15;;;21.80;72.80;;;;;;5036710;28;20482;-72
2022/10/18 11:07:28;;;;;;;0.00;0.00;;;21.20;74.40;;;;;;5026621;28;20032;-72
2022/10/18 11:10:10;;;;;;;0.20;0.20;;;20.60;76.70;;;;;;5031904;28;20040;-72
2022/10/18 11:12:50;;;;;;;0.32;0.25;;;20.80;76.60;;;;;;5036522;28;20020;-72
2022/10/18 11:15:42;;;;;;;0.35;0.10;;;20.70;77.90;;;;;;5027945;28;20032;-73
2022/10/18 11:18:20;;;;;;;1.25;0.22;;;21.10;78.40;;;;;;5037506;28;20017;-65
2022/10/18 11:31:36;;;;;;;0.05;0.00;;;20.90;78.70;;;;;;5033804;28;20045;-86
2022/10/18 11:34:57;;;;;;;0.10;0.10;;;21.00;79.60;;;;;;5019260;28;20033;-86
2022/10/18 11:38:10;;;;;;;0.43;0.32;;;21.60;78.10;;;;;;4994649;28;20023;-86
2022/10/18 11:41:43;;;;;;;0.00;0.00;;;21.60;78.30;;;;;;5037645;28;20035;-85
2022/10/18 11:45:22;;;;;;;0.65;0.10;;;21.30;79.80;;;;;;5062703;28;20017;-86
2022/10/18 11:48:48;;;;;;;0.10;0.10;;;21.50;79.90;;;;;;5066935;28;20024;-86
2022/10/18 12:01:51;;;;;;;0.38;0.35;;;20.90;82.60;;;;;;5049834;28;20537;-72
2022/10/18 12:04:24;;;;;;;0.73;0.73;;;21.00;82.30;;;;;;5024963;28;20021;-78
2022/10/18 12:06:53;;;;;;;0.10;0.10;;;20.80;83.80;;;;;;5038740;28;20023;-73
2022/10/18 12:09:19;;;;;;;0.00;0.00;;;20.90;83.90;;;;;;5034209;28;20028;-72
2022/10/18 12:12:18;;;;;;;0.00;0.00;;;20.90;85.10;;;;;;5020433;28;20021;-80
2022/10/18 12:15:03;;;;;;;0.22;0.22;;;21.20;83.40;;;;;;5034802;28;20037;-73
2022/10/18 12:17:45;;;;;;;0.40;0.05;;;21.00;84.30;;;;;;5040449;28;20025;-72
2022/10/18 12:20:20;;;;;;;0.22;0.22;;;20.70;85.30;;;;;;5035714;28;20465;-72
2022/10/18 12:22:51;;;;;;;0.28;0.28;;;20.30;86.50;;;;;;5037952;28;20060;-72
2022/10/18 12:25:17;;;;;;;0.22;0.22;;;20.10;87.60;;;;;;5038167;28;20029;-73
2022/10/18 12:27:51;;;;;;;0.05;0.05;;;20.40;88.10;;;;;;5025134;28;20388;-73
2022/10/18 12:30:59;;;;;;;0.28;0.22;;;20.30;88.00;;;;;;5041221;28;20725;-72
2022/10/18 12:33:35;;;;;;;0.00;0.00;;;20.80;87.30;;;;;;5014056;28;21154;-73
2022/10/18 12:36:09;;;;;;;0.10;0.10;;;21.00;86.70;;;;;;5037173;28;20106;-73
2022/10/18 12:38:39;;;;;;;0.03;0.03;;;21.00;86.60;;;;;;5039334;28;20030;-73
2022/10/18 12:41:06;;;;;;;0.10;0.10;;;21.00;87.70;;;;;;5033205;28;20025;-73
2022/10/18 12:43:36;;;;;;;0.10;0.10;;;21.20;87.10;;;;;;5024371;28;20078;-73
2022/10/18 12:46:07;;;;;;;0.25;0.25;;;21.50;86.20;;;;;;5039093;28;20073;-73
2022/10/18 12:48:37;;;;;;;0.30;0.30;;;21.20;85.90;;;;;;5020635;28;20111;-73
2022/10/18 12:51:21;;;;;;;1.45;0.35;;;20.90;87.00;;;;;;5033085;28;20048;-73
2022/10/18 12:54:01;;;;;;;0.28;0.28;;;21.00;86.80;;;;;;5040035;28;20017;-72
2022/10/18 12:56:30;;;;;;;0.05;0.05;;;21.00;86.90;;;;;;5030916;28;20105;-73
2022/10/18 12:59:14;;;;;;;1.13;0.00;;;20.90;87.70;;;;;;5020578;28;20040;-73
2022/10/18 13:01:52;;;;;;;0.00;0.00;;;21.10;88.10;;;;;;5015936;28;20552;-73
2022/10/18 13:04:27;;;;;;;0.00;0.00;;;21.00;88.10;;;;;;5042277;28;20033;-72
2022/10/18 13:06:59;;;;;;;0.13;0.13;;;21.30;87.80;;;;;;5036638;28;20201;-73
2022/10/18 13:09:27;;;;;;;0.08;0.08;;;21.30;87.80;;;;;;5039683;28;20052;-73
2022/10/18 13:12:11;;;;;;;0.17;0.13;;;21.30;87.80;;;;;;5038176;28;20056;-73
2022/10/18 13:15:22;;;;;;;0.00;0.00;;;21.10;88.30;;;;;;5036859;28;20017;-73
2022/10/18 13:18:07;;;;;;;0.20;0.20;;;20.90;88.90;;;;;;5036425;28;20041;-72
2022/10/18 13:21:00;;;;;;;0.00;0.00;;;21.10;88.70;;;;;;5043787;28;20105;-72
2022/10/18 13:23:43;;;;;;;0.00;0.00;;;21.30;88.40;;;;;;5040682;28;20025;-73
2022/10/18 13:26:22;;;;;;;0.08;0.08;;;21.40;88.30;;;;;;5037544;28;20418;-73
2022/10/18 13:28:50;;;;;;;0.00;0.00;;;21.30;88.80;;;;;;5043305;28;20079;-72
2022/10/18 13:31:39;;;;;;;0.00;0.00;;;21.40;88.60;;;;;;5026758;28;20355;-73
2022/10/18 13:34:34;;;;;;;0.08;0.08;;;20.90;89.80;;;;;;5022903;28;20025;-73
2022/10/18 13:37:26;;;;;;;0.25;0.13;;;20.80;90.30;;;;;;5040347;28;20040;-72
2022/10/18 13:40:23;;;;;;;0.00;0.00;;;20.70;90.50;;;;;;5039458;28;21466;-73